createdAt,value
2023-04-17T00:02:01.752Z,8.30
2023-04-17T00:04:31.054Z,8.30
2023-04-17T00:06:59.500Z,8.30
2023-04-17T00:09:26.746Z,8.30
2023-04-17T00:11:53.884Z,8.20
2023-04-17T00:14:21.099Z,8.10
2023-04-17T00:16:48.445Z,8.10
2023-04-17T00:19:15.916Z,8.00
2023-04-17T00:21:43.015Z,8.00
2023-04-17T00:24:10.125Z,7.90
2023-04-17T00:26:37.218Z,7.90
2023-04-17T00:29:04.367Z,7.90
2023-04-17T00:31:31.593Z,7.80
2023-04-17T00:33:59.046Z,7.80
2023-04-17T00:36:27.295Z,7.70
2023-04-17T00:38:54.434Z,7.60
2023-04-17T00:41:22.612Z,7.60
2023-04-17T00:43:49.727Z,7.50
2023-04-17T00:46:16.965Z,7.50
2023-04-17T00:48:44.667Z,7.70
2023-04-17T00:51:12.018Z,7.70
2023-04-17T00:53:39.674Z,7.60
2023-04-17T00:56:07.616Z,7.50
2023-04-17T00:58:37.628Z,7.50
2023-04-17T01:01:07.708Z,7.40
2023-04-17T01:03:35.095Z,7.30
2023-04-17T01:06:03.705Z,7.30
2023-04-17T01:08:43.520Z,7.30
2023-04-17T01:11:11.451Z,7.20
2023-04-17T01:13:49.465Z,7.20
2023-04-17T01:16:18.908Z,7.20
2023-04-17T01:18:48.441Z,7.20
2023-04-17T01:21:16.809Z,7.10
2023-04-17T01:23:53.337Z,7.20
2023-04-17T01:26:25.088Z,7.10
2023-04-17T01:28:58.024Z,7.10
2023-04-17T01:31:27.668Z,7.00
2023-04-17T01:33:56.230Z,7.00
2023-04-17T01:36:23.356Z,7.00
2023-04-17T01:38:51.597Z,7.00
2023-04-17T01:41:18.938Z,7.20
2023-04-17T01:43:47.580Z,7.00
2023-04-17T01:46:15.039Z,7.00
2023-04-17T01:48:42.274Z,7.00
2023-04-17T01:51:09.341Z,7.10
2023-04-17T01:53:38.930Z,7.10
2023-04-17T01:56:06.421Z,7.10
2023-04-17T01:58:33.693Z,7.10
2023-04-17T02:01:00.901Z,7.10
2023-04-17T02:03:28.367Z,7.10
2023-04-17T02:05:55.808Z,7.10
2023-04-17T02:08:23.146Z,7.10
2023-04-17T02:10:51.117Z,7.10
2023-04-17T02:13:18.208Z,7.10
2023-04-17T02:15:45.420Z,7.10
2023-04-17T02:18:12.670Z,7.00
2023-04-17T02:20:40.086Z,7.00
2023-04-17T02:23:07.576Z,7.00
2023-04-17T02:25:35.134Z,6.90
2023-04-17T02:28:02.223Z,6.90
2023-04-17T02:30:29.439Z,6.90
2023-04-17T02:32:57.339Z,6.80
2023-04-17T02:35:31.499Z,6.80
2023-04-17T02:37:58.667Z,6.70
2023-04-17T02:40:25.890Z,6.60
2023-04-17T02:42:53.029Z,6.50
2023-04-17T02:45:20.435Z,6.40
2023-04-17T02:47:48.272Z,6.20
2023-04-17T02:50:15.602Z,6.10
2023-04-17T02:52:44.057Z,6.10
2023-04-17T02:55:11.176Z,5.90
2023-04-17T02:57:38.309Z,6.10
2023-04-17T03:00:12.149Z,5.90
2023-04-17T03:02:39.410Z,5.80
2023-04-17T03:05:07.202Z,5.80
2023-04-17T03:07:34.312Z,5.70
2023-04-17T03:10:01.704Z,5.70
2023-04-17T03:12:28.867Z,5.80
2023-04-17T03:14:55.978Z,5.80
2023-04-17T03:17:23.121Z,5.90
2023-04-17T03:19:50.434Z,6.00
2023-04-17T03:22:17.537Z,6.10
2023-04-17T03:24:44.662Z,6.40
2023-04-17T03:27:11.728Z,6.30
2023-04-17T03:29:39.008Z,6.30
2023-04-17T03:32:06.565Z,6.30
2023-04-17T03:34:33.893Z,6.30
2023-04-17T03:37:01.029Z,6.30
2023-04-17T03:39:28.152Z,6.30
2023-04-17T03:41:55.179Z,6.30
2023-04-17T03:44:22.428Z,6.30
2023-04-17T03:46:50.338Z,6.30
2023-04-17T03:49:17.430Z,6.30
2023-04-17T03:51:44.626Z,6.30
2023-04-17T03:54:11.832Z,6.30
2023-04-17T03:56:38.940Z,6.30
2023-04-17T03:59:06.107Z,6.40
2023-04-17T04:01:33.398Z,6.40
2023-04-17T04:04:01.872Z,6.40
2023-04-17T04:06:30.110Z,6.40
2023-04-17T04:08:57.379Z,6.40
2023-04-17T04:11:24.525Z,6.50
2023-04-17T04:13:51.627Z,6.50
2023-04-17T04:16:18.870Z,6.60
2023-04-17T04:18:45.983Z,6.60
2023-04-17T04:21:13.058Z,6.60
2023-04-17T04:23:41.453Z,6.60
2023-04-17T04:26:08.542Z,6.60
2023-04-17T04:28:35.681Z,6.60
2023-04-17T04:31:03.944Z,6.70
2023-04-17T04:33:31.272Z,6.60
2023-04-17T04:36:01.089Z,6.70
2023-04-17T04:38:33.204Z,6.70
2023-04-17T04:41:06.232Z,6.80
2023-04-17T04:43:34.192Z,6.80
2023-04-17T04:46:01.327Z,6.90
2023-04-17T04:48:29.014Z,6.90
2023-04-17T04:50:56.733Z,7.00
2023-04-17T04:53:24.654Z,7.00
2023-04-17T04:55:51.744Z,7.00
2023-04-17T04:58:18.814Z,7.00
2023-04-17T05:00:46.119Z,7.10
2023-04-17T05:03:13.508Z,7.10
2023-04-17T05:05:41.978Z,7.10
2023-04-17T05:08:09.109Z,7.10
2023-04-17T05:10:36.342Z,7.10
2023-04-17T05:13:03.498Z,7.10
2023-04-17T05:15:30.714Z,7.10
2023-04-17T05:17:57.914Z,7.10
2023-04-17T05:20:26.429Z,7.00
2023-04-17T05:22:53.574Z,7.00
2023-04-17T05:25:20.899Z,7.00
2023-04-17T05:27:48.217Z,7.00
2023-04-17T05:30:16.179Z,7.00
2023-04-17T05:32:43.603Z,7.00
2023-04-17T05:35:10.916Z,7.00
2023-04-17T05:37:37.986Z,7.00
2023-04-17T05:40:07.271Z,7.10
2023-04-17T05:42:35.231Z,7.10
2023-04-17T05:45:02.661Z,7.20
2023-04-17T05:47:29.742Z,7.20
2023-04-17T05:50:00.184Z,7.30
2023-04-17T05:52:27.360Z,7.30
2023-04-17T05:54:54.423Z,7.40
2023-04-17T05:57:21.546Z,7.40
2023-04-17T05:59:52.117Z,7.40
2023-04-17T06:02:21.749Z,7.50
2023-04-17T06:04:49.161Z,7.60
2023-04-17T06:07:16.501Z,7.70
2023-04-17T06:09:43.559Z,7.80
2023-04-17T06:12:16.051Z,7.90
2023-04-17T06:14:44.399Z,8.10
2023-04-17T06:17:12.481Z,8.20
2023-04-17T06:19:39.831Z,8.40
2023-04-17T06:22:07.186Z,8.50
2023-04-17T06:24:34.362Z,8.60
2023-04-17T06:27:02.133Z,8.70
2023-04-17T06:29:29.585Z,8.90
2023-04-17T06:31:56.904Z,9.10
2023-04-17T06:34:24.039Z,9.30
2023-04-17T06:36:51.756Z,9.40
2023-04-17T06:39:18.956Z,9.60
2023-04-17T06:41:46.286Z,9.70
2023-04-17T06:44:13.379Z,9.90
2023-04-17T06:46:40.560Z,9.90
2023-04-17T06:49:09.237Z,9.90
2023-04-17T06:51:36.450Z,10.00
2023-04-17T06:54:03.535Z,10.10
2023-04-17T06:56:30.873Z,10.00
2023-04-17T06:58:58.006Z,10.00
2023-04-17T07:01:25.194Z,10.00
2023-04-17T07:03:52.705Z,10.00
2023-04-17T07:06:19.951Z,10.00
2023-04-17T07:08:47.082Z,10.00
2023-04-17T07:11:14.218Z,10.00
2023-04-17T07:13:41.377Z,10.10
2023-04-17T07:16:08.673Z,10.00
2023-04-17T07:18:35.871Z,10.00
2023-04-17T07:21:03.068Z,10.00
2023-04-17T07:23:30.107Z,10.10
2023-04-17T07:25:57.188Z,10.20
2023-04-17T07:28:25.144Z,10.10
2023-04-17T07:30:55.188Z,10.20
2023-04-17T07:33:22.497Z,10.30
2023-04-17T07:35:49.630Z,10.30
2023-04-17T07:38:16.826Z,10.20
2023-04-17T07:40:44.314Z,10.20
2023-04-17T07:43:11.481Z,10.30
2023-04-17T07:45:41.115Z,10.40
2023-04-17T07:48:09.839Z,10.50
2023-04-17T07:50:37.052Z,10.60
2023-04-17T07:53:04.149Z,10.60
2023-04-17T07:55:31.381Z,10.70
2023-04-17T07:58:01.722Z,10.80
2023-04-17T08:00:29.459Z,10.80
2023-04-17T08:02:56.829Z,11.00
2023-04-17T08:05:25.590Z,11.00
2023-04-17T08:07:52.731Z,11.10
2023-04-17T08:10:19.945Z,11.20
2023-04-17T08:12:47.216Z,11.30
2023-04-17T08:15:14.506Z,11.30
2023-04-17T08:17:41.797Z,11.40
2023-04-17T08:20:14.305Z,11.40
2023-04-17T08:22:43.508Z,11.50
2023-04-17T08:25:11.941Z,11.50
2023-04-17T08:27:41.390Z,11.40
2023-04-17T08:30:14.232Z,11.40
2023-04-17T08:32:52.644Z,11.50
2023-04-17T08:35:20.842Z,11.50
2023-04-17T08:37:48.079Z,11.40
2023-04-17T08:40:17.223Z,11.40
2023-04-17T08:42:45.017Z,11.70
2023-04-17T08:45:14.067Z,11.80
2023-04-17T08:47:43.146Z,11.80
2023-04-17T08:50:21.928Z,11.70
2023-04-17T08:52:52.858Z,11.90
2023-04-17T08:55:29.182Z,11.90
2023-04-17T08:57:57.091Z,11.80
2023-04-17T09:00:29.452Z,11.60
2023-04-17T09:02:59.372Z,11.50
2023-04-17T09:05:36.908Z,11.30
2023-04-17T09:08:16.148Z,11.20
2023-04-17T09:10:52.329Z,11.30
2023-04-17T09:13:24.384Z,11.20
2023-04-17T09:16:25.874Z,11.20
2023-04-17T09:19:06.913Z,11.10
2023-04-17T09:21:34.087Z,11.20
2023-04-17T09:24:01.630Z,11.30
2023-04-17T09:26:33.375Z,11.30
2023-04-17T09:29:07.901Z,11.50
2023-04-17T09:31:37.491Z,11.60
2023-04-17T09:34:12.092Z,11.60
2023-04-17T09:36:42.189Z,11.90
2023-04-17T09:39:26.372Z,11.90
2023-04-17T09:42:08.281Z,11.70
2023-04-17T09:44:37.074Z,11.70
2023-04-17T09:47:05.419Z,11.80
2023-04-17T09:49:49.739Z,11.70
2023-04-17T09:52:17.208Z,11.50
2023-04-17T09:54:47.408Z,11.60
2023-04-17T09:57:14.602Z,11.60
2023-04-17T09:59:49.091Z,11.50
2023-04-17T10:02:21.762Z,11.50
2023-04-17T10:04:49.031Z,11.60
2023-04-17T10:07:17.245Z,11.70
2023-04-17T10:09:47.318Z,11.70
2023-04-17T10:12:18.176Z,11.70
2023-04-17T10:14:51.754Z,11.70
2023-04-17T10:17:31.907Z,11.50
2023-04-17T10:20:23.323Z,11.60
2023-04-17T10:22:56.797Z,11.50
2023-04-17T10:25:26.276Z,11.60
2023-04-17T10:28:03.154Z,11.50
2023-04-17T10:30:54.732Z,11.40
2023-04-17T10:33:25.739Z,11.50
2023-04-17T10:35:54.251Z,11.50
2023-04-17T10:38:34.304Z,11.40
2023-04-17T10:41:04.212Z,11.40
2023-04-17T10:43:31.999Z,11.40
2023-04-17T10:46:12.927Z,11.50
2023-04-17T10:48:53.130Z,11.50
2023-04-17T10:51:32.278Z,11.80
2023-04-17T10:54:00.281Z,11.90
2023-04-17T10:56:48.371Z,12.00
2023-04-17T10:59:20.843Z,12.20
2023-04-17T11:01:48.102Z,12.50
2023-04-17T11:04:31.118Z,12.70
2023-04-17T11:06:58.933Z,12.80
2023-04-17T11:09:28.686Z,12.90
2023-04-17T11:12:02.053Z,13.00
2023-04-17T11:14:30.549Z,13.30
2023-04-17T11:16:57.787Z,13.30
2023-04-17T11:19:27.194Z,13.30
2023-04-17T11:22:01.560Z,13.20
2023-04-17T11:24:30.783Z,13.10
2023-04-17T11:27:01.156Z,13.10
2023-04-17T11:29:28.913Z,13.00
2023-04-17T11:31:57.716Z,13.20
2023-04-17T11:34:27.142Z,13.20
2023-04-17T11:36:59.976Z,13.30
2023-04-17T11:39:34.456Z,13.40
2023-04-17T11:42:05.593Z,13.30
2023-04-17T11:44:32.860Z,13.50
2023-04-17T11:47:00.330Z,13.30
2023-04-17T11:49:33.264Z,13.20
2023-04-17T11:52:02.488Z,13.00
2023-04-17T11:54:39.781Z,13.10
2023-04-17T11:57:14.243Z,12.90
2023-04-17T11:59:44.795Z,12.70
2023-04-17T12:02:12.632Z,12.30
2023-04-17T12:04:40.716Z,12.00
2023-04-17T12:07:09.071Z,12.00
2023-04-17T12:09:37.068Z,11.80
2023-04-17T12:12:08.294Z,11.80
2023-04-17T12:14:35.895Z,11.90
2023-04-17T12:17:03.054Z,11.80
2023-04-17T12:19:31.927Z,11.80
2023-04-17T12:21:59.723Z,11.70
2023-04-17T12:24:27.238Z,11.60
2023-04-17T12:26:54.636Z,11.50
2023-04-17T12:29:36.171Z,11.60
2023-04-17T12:32:04.272Z,11.60
2023-04-17T12:34:31.423Z,11.70
2023-04-17T12:36:58.561Z,11.80
2023-04-17T12:39:25.667Z,11.90
2023-04-17T12:41:52.801Z,12.00
2023-04-17T12:44:19.921Z,12.00
2023-04-17T12:46:47.314Z,12.10
2023-04-17T12:49:14.706Z,12.10
2023-04-17T12:51:41.984Z,12.30
2023-04-17T12:54:10.295Z,12.40
2023-04-17T12:56:37.531Z,12.50
2023-04-17T12:59:05.190Z,12.80
2023-04-17T13:01:32.385Z,12.90
2023-04-17T13:03:59.649Z,12.90
2023-04-17T13:06:28.205Z,12.90
2023-04-17T13:08:55.335Z,12.90
2023-04-17T13:11:22.714Z,12.90
2023-04-17T13:13:49.787Z,12.90
2023-04-17T13:16:17.031Z,12.90
2023-04-17T13:18:44.161Z,13.00
2023-04-17T13:21:11.376Z,13.10
2023-04-17T13:23:38.685Z,13.30
2023-04-17T13:26:05.942Z,13.30
2023-04-17T13:28:33.312Z,13.40
2023-04-17T13:31:00.631Z,13.60
2023-04-17T13:33:27.832Z,13.50
2023-04-17T13:35:54.923Z,13.70
2023-04-17T13:38:22.007Z,13.90
2023-04-17T13:40:49.100Z,13.90
2023-04-17T13:43:16.324Z,14.20
2023-04-17T13:45:43.596Z,14.10
2023-04-17T13:48:11.798Z,14.30
2023-04-17T13:50:39.164Z,14.60
2023-04-17T13:53:06.494Z,14.60
2023-04-17T13:55:33.628Z,14.80
2023-04-17T13:58:01.267Z,14.90
2023-04-17T14:00:28.333Z,14.70
2023-04-17T14:02:55.792Z,14.50
2023-04-17T14:05:23.272Z,14.20
2023-04-17T14:07:54.091Z,14.00
2023-04-17T14:10:21.386Z,13.70
2023-04-17T14:12:48.888Z,13.40
2023-04-17T14:15:17.207Z,13.20
2023-04-17T14:17:44.550Z,13.30
2023-04-17T14:20:15.197Z,13.30
2023-04-17T14:22:43.229Z,13.10
2023-04-17T14:25:10.699Z,13.00
2023-04-17T14:27:37.789Z,13.00
2023-04-17T14:30:06.517Z,13.00
2023-04-17T14:32:33.817Z,13.00
2023-04-17T14:35:01.168Z,13.00
2023-04-17T14:37:28.770Z,13.00
2023-04-17T14:39:55.947Z,13.00
2023-04-17T14:42:23.308Z,13.20
2023-04-17T14:44:50.550Z,13.30
2023-04-17T14:47:18.283Z,13.30
2023-04-17T14:49:45.345Z,13.10
2023-04-17T14:52:13.799Z,12.90
2023-04-17T14:54:40.905Z,13.00
2023-04-17T14:57:08.595Z,12.90
2023-04-17T14:59:35.767Z,12.80
2023-04-17T15:02:03.038Z,12.70
2023-04-17T15:04:30.280Z,12.50
2023-04-17T15:06:57.389Z,12.70
2023-04-17T15:09:24.502Z,12.70
2023-04-17T15:11:51.573Z,12.70
2023-04-17T15:14:18.610Z,12.70
2023-04-17T15:16:45.899Z,12.80
2023-04-17T15:19:13.369Z,12.80
2023-04-17T15:21:40.764Z,12.90
2023-04-17T15:24:08.113Z,12.90
2023-04-17T15:26:35.686Z,13.00
2023-04-17T15:29:03.780Z,13.00
2023-04-17T15:31:30.873Z,13.10
2023-04-17T15:33:58.008Z,13.10
2023-04-17T15:36:34.030Z,13.00
2023-04-17T15:39:01.482Z,12.90
2023-04-17T15:41:28.612Z,12.60
2023-04-17T15:43:56.432Z,12.60
2023-04-17T15:46:23.605Z,12.40
2023-04-17T15:49:04.938Z,12.50
2023-04-17T15:51:34.565Z,12.30
2023-04-17T15:54:03.083Z,12.00
2023-04-17T15:56:30.235Z,11.80
2023-04-17T15:58:57.318Z,11.60
2023-04-17T16:01:24.482Z,11.40
2023-04-17T16:03:52.161Z,11.10
2023-04-17T16:06:20.597Z,11.00
2023-04-17T16:08:47.819Z,10.90
2023-04-17T16:11:14.901Z,10.90
2023-04-17T16:13:42.066Z,10.90
2023-04-17T16:16:09.299Z,10.80
2023-04-17T16:18:36.574Z,10.80
2023-04-17T16:21:03.832Z,10.90
2023-04-17T16:23:30.947Z,11.00
2023-04-17T16:25:58.293Z,11.00
2023-04-17T16:28:25.591Z,11.00
2023-04-17T16:30:52.681Z,11.10
2023-04-17T16:33:19.822Z,11.20
2023-04-17T16:35:46.992Z,11.20
2023-04-17T16:38:14.073Z,11.30
2023-04-17T16:40:41.115Z,11.40
2023-04-17T16:43:09.174Z,11.50
2023-04-17T16:45:39.361Z,11.50
2023-04-17T16:48:09.272Z,11.50
2023-04-17T16:50:36.469Z,11.50
2023-04-17T16:53:03.570Z,11.50
2023-04-17T16:55:30.716Z,11.30
2023-04-17T16:58:00.119Z,11.40
2023-04-17T17:00:27.320Z,11.30
2023-04-17T17:02:56.011Z,11.20
2023-04-17T17:05:23.683Z,11.10
2023-04-17T17:07:50.751Z,11.00
2023-04-17T17:10:17.946Z,10.90
2023-04-17T17:12:45.178Z,10.90
2023-04-17T17:15:12.887Z,11.00
2023-04-17T17:17:40.003Z,11.00
2023-04-17T17:20:08.279Z,10.90
2023-04-17T17:22:35.346Z,10.80
2023-04-17T17:25:02.464Z,10.80
2023-04-17T17:27:29.510Z,10.70
2023-04-17T17:29:57.917Z,10.80
2023-04-17T17:32:26.887Z,10.80
2023-04-17T17:34:54.031Z,10.70
2023-04-17T17:37:21.782Z,10.70
2023-04-17T17:39:49.329Z,10.60
2023-04-17T17:42:16.384Z,10.60
2023-04-17T17:44:43.406Z,10.50
2023-04-17T17:47:10.564Z,10.50
2023-04-17T17:49:37.674Z,10.50
2023-04-17T17:52:05.036Z,10.50
2023-04-17T17:54:37.427Z,10.40
2023-04-17T17:57:06.573Z,10.30
2023-04-17T17:59:34.107Z,10.20
2023-04-17T18:02:02.241Z,10.20
2023-04-17T18:04:29.869Z,10.10
2023-04-17T18:06:57.097Z,10.00
2023-04-17T18:09:24.264Z,10.00
2023-04-17T18:11:52.792Z,9.90
2023-04-17T18:14:19.910Z,9.90
2023-04-17T18:16:48.612Z,9.80
2023-04-17T18:19:16.151Z,9.80
2023-04-17T18:21:44.551Z,9.70
2023-04-17T18:24:12.914Z,9.60
2023-04-17T18:26:41.194Z,9.50
2023-04-17T18:29:08.321Z,9.50
2023-04-17T18:31:35.523Z,9.40
2023-04-17T18:34:02.934Z,9.40
2023-04-17T18:36:30.893Z,9.30
2023-04-17T18:38:58.035Z,9.30
2023-04-17T18:41:26.901Z,9.20
2023-04-17T18:43:54.022Z,9.20
2023-04-17T18:46:22.272Z,9.20
2023-04-17T18:48:49.403Z,9.10
2023-04-17T18:51:17.546Z,9.10
2023-04-17T18:53:44.868Z,9.10
2023-04-17T18:56:13.848Z,9.00
2023-04-17T18:58:41.063Z,9.00
2023-04-17T19:01:10.399Z,9.00
2023-04-17T19:03:38.663Z,8.90
2023-04-17T19:06:06.810Z,8.90
2023-04-17T19:08:34.579Z,8.90
2023-04-17T19:11:02.219Z,8.90
2023-04-17T19:13:29.334Z,8.80
2023-04-17T19:15:56.528Z,8.80
2023-04-17T19:18:24.052Z,8.80
2023-04-17T19:20:51.236Z,8.80
2023-04-17T19:23:18.512Z,8.80
2023-04-17T19:25:52.376Z,8.80
2023-04-17T19:28:21.481Z,8.70
2023-04-17T19:30:49.081Z,8.70
2023-04-17T19:33:16.173Z,8.70
2023-04-17T19:35:43.293Z,8.70
2023-04-17T19:38:11.646Z,8.70
2023-04-17T19:40:38.734Z,8.70
2023-04-17T19:43:06.079Z,8.70
2023-04-17T19:45:34.764Z,8.60
2023-04-17T19:48:02.093Z,8.70
2023-04-17T19:50:30.763Z,8.70
2023-04-17T19:52:59.004Z,8.70
2023-04-17T19:55:26.401Z,8.70
2023-04-17T19:57:56.145Z,8.60
2023-04-17T20:00:23.405Z,8.60
2023-04-17T20:02:51.750Z,8.60
2023-04-17T20:05:19.573Z,8.60
2023-04-17T20:07:46.792Z,8.50
2023-04-17T20:10:14.038Z,8.50
2023-04-17T20:12:41.180Z,8.50
2023-04-17T20:15:10.301Z,8.50
2023-04-17T20:17:37.455Z,8.50
2023-04-17T20:20:05.112Z,8.50
2023-04-17T20:22:32.307Z,8.40
2023-04-17T20:24:59.449Z,8.40
2023-04-17T20:27:26.733Z,8.40
2023-04-17T20:29:55.340Z,8.40
2023-04-17T20:32:23.712Z,8.30
2023-04-17T20:34:50.966Z,8.40
2023-04-17T20:37:18.099Z,8.30
2023-04-17T20:39:45.332Z,8.30
2023-04-17T20:42:12.456Z,8.20
2023-04-17T20:44:39.492Z,8.20
2023-04-17T20:47:06.580Z,8.20
2023-04-17T20:49:34.213Z,8.20
2023-04-17T20:52:03.062Z,8.20
2023-04-17T20:54:30.356Z,8.10
2023-04-17T20:56:57.478Z,8.00
2023-04-17T20:59:24.582Z,8.00
2023-04-17T21:01:53.335Z,7.90
2023-04-17T21:04:21.797Z,7.80
2023-04-17T21:06:48.916Z,7.80
2023-04-17T21:09:16.495Z,7.80
2023-04-17T21:11:43.690Z,7.70
2023-04-17T21:14:13.892Z,7.70
2023-04-17T21:16:44.520Z,7.70
2023-04-17T21:19:12.462Z,7.70
2023-04-17T21:21:39.538Z,7.70
2023-04-17T21:24:07.126Z,7.70
2023-04-17T21:26:34.376Z,7.70
2023-04-17T21:29:01.443Z,7.70
2023-04-17T21:31:28.621Z,7.90
2023-04-17T21:33:55.772Z,7.90
2023-04-17T21:36:23.158Z,7.90
2023-04-17T21:38:50.274Z,7.90
2023-04-17T21:41:17.364Z,7.90
2023-04-17T21:43:44.433Z,7.90
2023-04-17T21:46:12.031Z,7.90
2023-04-17T21:48:40.077Z,7.80
2023-04-17T21:51:07.381Z,7.80
2023-04-17T21:53:36.286Z,7.80
2023-04-17T21:56:05.054Z,7.80
2023-04-17T21:58:33.923Z,7.90
2023-04-17T22:01:01.209Z,7.90
2023-04-17T22:03:28.354Z,7.90
2023-04-17T22:05:57.007Z,7.90
2023-04-17T22:08:24.683Z,8.00
2023-04-17T22:10:52.666Z,8.00
2023-04-17T22:13:19.716Z,8.10
2023-04-17T22:15:48.452Z,8.10
2023-04-17T22:18:15.818Z,8.10
2023-04-17T22:20:42.924Z,8.20
2023-04-17T22:23:10.039Z,8.20
2023-04-17T22:25:37.193Z,8.20
2023-04-17T22:28:04.325Z,8.10
2023-04-17T22:30:31.608Z,8.20
2023-04-17T22:32:58.717Z,8.40
2023-04-17T22:35:25.866Z,8.40
2023-04-17T22:37:52.956Z,8.50
2023-04-17T22:40:20.146Z,8.60
2023-04-17T22:42:47.241Z,8.70
2023-04-17T22:45:14.444Z,8.70
2023-04-17T22:47:41.745Z,8.70
2023-04-17T22:50:10.618Z,8.80
2023-04-17T22:52:37.864Z,8.80
2023-04-17T22:55:06.585Z,8.90
2023-04-17T22:57:33.667Z,8.80
2023-04-17T23:00:00.804Z,8.80
2023-04-17T23:02:27.998Z,8.80
2023-04-17T23:04:57.714Z,8.70
2023-04-17T23:07:24.903Z,8.70
2023-04-17T23:09:51.943Z,8.80
2023-04-17T23:12:19.254Z,8.70
2023-04-17T23:14:48.483Z,8.70
2023-04-17T23:17:16.843Z,8.90
2023-04-17T23:19:43.892Z,8.70
2023-04-17T23:22:11.019Z,8.60
2023-04-17T23:24:39.110Z,8.60
2023-04-17T23:27:06.386Z,8.60
2023-04-17T23:29:33.634Z,8.70
2023-04-17T23:32:00.865Z,8.70
2023-04-17T23:34:28.145Z,8.70
2023-04-17T23:36:55.274Z,8.70
2023-04-17T23:39:22.553Z,8.70
2023-04-17T23:41:49.886Z,8.70
2023-04-17T23:44:17.039Z,8.60
2023-04-17T23:46:44.281Z,8.70
2023-04-17T23:49:11.373Z,8.70
2023-04-17T23:51:38.522Z,8.60
2023-04-17T23:54:05.669Z,8.50
2023-04-17T23:56:32.785Z,8.50
2023-04-17T23:58:59.922Z,8.60
